Hartville, MO (65667)

12:14 AM CDT on July 23, 2014 (GMT -0500)
IMOAVA2 Elev 1365 ft | 37.02 °N, 92.64 °W | Change Station

Current weather conditions updated 21 seconds ago

Partly Cloudy
Partly Cloudy
75.3 °F
Feels Like 75 °F
N
0.0
Wind Variable Wind from SSW
Gusts 0.0 mph

Today is forecast to be Warmer than yesterday.

Today
High -- | Low -- °F
--% Chance of Precip.
Yesterday
High -- | Low -- °F
Precip. -- in
6:07 AM 8:25 PM
Waning Crescent, 12% visible
Pressure 30.06 in
Visibility 10.0 miles
Clouds Few 3900 ft
Heat Index 75 °F
Dew Point 72 °F
Humidity 90%
Rainfall 0.00 in
Snow Depth Not available.
UV 0 out of 12
Pollen 4.90 out of 12
Air Quality Not available.
Flu Activity Not available.
METAR KUNO 230353Z AUTO 00000KT 10SM FEW039 24/21 A3010 RMK AO2 SLP179 T02440211

More Conditions Fewer Conditions

Pressure 30.06 in
Visibility 10.0 miles
Clouds Few 3900 ft
Heat Index 75 °F
Dew Point 72 °F
Humidity 90%
Rainfall 0.00 in
Snow Depth Not available.
UV 0 out of 12
Pollen 4.90 out of 12
Air Quality Not available.
Flu Activity Not available.
METAR KUNO 230353Z AUTO 00000KT 10SM FEW039 24/21 A3010 RMK AO2 SLP179 T02440211

More Conditions Fewer Conditions

10-Day Weather Forecast

Almanac

Astronomy

Jul. 23, 2014 Rise Set
Actual Time 6:07 AM CDT 8:25 PM CDT
Civil Twilight 5:37 AM CDT 8:54 PM CDT
Nautical Twilight 5:01 AM CDT 9:31 PM CDT
Astronomical Twilight 4:21 AM CDT 10:10 PM CDT
Moon 3:26 AM CDT 5:54 PM CDT
Length of Visible Light 15h 16m
Length of Day
14h 17m
Tomorrow will be 1m 32s shorter.
Waning Crescent, 12% of the Moon is Illuminated
Today
Waning Crescent
Jul 26
New
Aug 3
First Quarter
Aug 10
Full
Aug 17
Last Quarter

Today's Extremes

State Highs State Lows

Community

WunderPhotos

Upload Photos

1,736,513 photos uploaded!

Nearby

Snow Depth

Station Depth Elevation
No new snow has been reported.

Earthquake Activity

City Distance Mag. Time & Date
No recent earthquake activity has been reported nearby.
Minimum magnitude displayed is 2.5.

Coastal Water Temperatures

Place Temperature
No Stations Reporting

Nearby Weather Stations

Station Location Temp. Heat Index Dew Point Humidity Wind Precip. Elev Updated Type
Ava, MO 75.3 °F 75 °F 72 °F 90% SSW  at  0.0 mph 0.00 in / hr 1365 ft 12:14 AM CDT Normal
Marshfield, Marshfield, MO 77.4 °F 79 °F 73 °F 87% South  at  1.0 mph 0.00 in / hr 1473 ft 12:14 AM CDT Rapid Fire
S. Newport, Conway, Conway, MO 79.3 °F 83 °F 74 °F 83% South  at  3.1 mph 0.00 in / hr 1394 ft 12:13 AM CDT Normal
Marshfield, MO 76.9 °F 78 °F 74 °F 91% SSW  at  3.0 mph 0.00 in / hr 1504 ft 12:09 AM CDT Normal
Bucyrus / Clara, Mo Texas County, Houston, MO 71.8 °F - 70 °F 94% West  at  0.0 mph - / hr 1161 ft 12:02 AM CDT Normal

Show More Stations Show Fewer Stations